sensor_id;sensor_type;location;lat;lon;timestamp;P1;durP1;ratioP1;P2;durP2;ratioP2
30862;SDS011;17573;55.922;37.540;2023-08-08T00:00:11;5.03;;;3.38;;
30862;SDS011;17573;55.922;37.540;2023-08-08T00:02:39;4.72;;;3.60;;
30862;SDS011;17573;55.922;37.540;2023-08-08T00:05:05;11.02;;;3.63;;
30862;SDS011;17573;55.922;37.540;2023-08-08T00:07:31;8.93;;;3.70;;
30862;SDS011;17573;55.922;37.540;2023-08-08T00:09:57;11.48;;;3.65;;
30862;SDS011;17573;55.922;37.540;2023-08-08T00:12:22;4.93;;;3.50;;
30862;SDS011;17573;55.922;37.540;2023-08-08T00:14:48;4.75;;;3.38;;
30862;SDS011;17573;55.922;37.540;2023-08-08T00:17:14;6.32;;;3.63;;
30862;SDS011;17573;55.922;37.540;2023-08-08T00:19:40;17.38;;;4.13;;
30862;SDS011;17573;55.922;37.540;2023-08-08T00:22:06;9.60;;;4.00;;
30862;SDS011;17573;55.922;37.540;2023-08-08T00:24:32;6.40;;;3.60;;
30862;SDS011;17573;55.922;37.540;2023-08-08T00:26:57;12.25;;;3.92;;
30862;SDS011;17573;55.922;37.540;2023-08-08T00:29:23;11.20;;;4.00;;
30862;SDS011;17573;55.922;37.540;2023-08-08T00:31:49;6.70;;;4.15;;
30862;SDS011;17573;55.922;37.540;2023-08-08T00:34:15;10.48;;;4.05;;
30862;SDS011;17573;55.922;37.540;2023-08-08T00:36:41;9.55;;;3.60;;
30862;SDS011;17573;55.922;37.540;2023-08-08T00:39:06;10.27;;;3.42;;
30862;SDS011;17573;55.922;37.540;2023-08-08T00:41:33;9.13;;;3.83;;
30862;SDS011;17573;55.922;37.540;2023-08-08T00:43:59;8.43;;;4.00;;
30862;SDS011;17573;55.922;37.540;2023-08-08T00:46:24;8.43;;;4.18;;
30862;SDS011;17573;55.922;37.540;2023-08-08T00:48:51;4.97;;;3.90;;
30862;SDS011;17573;55.922;37.540;2023-08-08T00:51:17;5.93;;;3.55;;
30862;SDS011;17573;55.922;37.540;2023-08-08T00:53:44;15.65;;;3.58;;
30862;SDS011;17573;55.922;37.540;2023-08-08T00:56:11;9.88;;;5.13;;
30862;SDS011;17573;55.922;37.540;2023-08-08T00:58:39;10.73;;;4.00;;
30862;SDS011;17573;55.922;37.540;2023-08-08T01:01:06;8.73;;;4.25;;
30862;SDS011;17573;55.922;37.540;2023-08-08T01:03:32;9.93;;;4.38;;
30862;SDS011;17573;55.922;37.540;2023-08-08T01:06:02;12.10;;;3.55;;
30862;SDS011;17573;55.922;37.540;2023-08-08T01:08:46;11.30;;;4.00;;
30862;SDS011;17573;55.922;37.540;2023-08-08T01:11:16;4.82;;;3.85;;
30862;SDS011;17573;55.922;37.540;2023-08-08T01:13:42;12.13;;;4.10;;
30862;SDS011;17573;55.922;37.540;2023-08-08T01:16:09;4.95;;;3.20;;
30862;SDS011;17573;55.922;37.540;2023-08-08T01:18:35;12.88;;;3.97;;
30862;SDS011;17573;55.922;37.540;2023-08-08T01:21:02;8.55;;;3.47;;
30862;SDS011;17573;55.922;37.540;2023-08-08T01:23:41;7.95;;;4.03;;
30862;SDS011;17573;55.922;37.540;2023-08-08T01:26:09;10.85;;;4.20;;
30862;SDS011;17573;55.922;37.540;2023-08-08T01:28:35;11.38;;;4.05;;
30862;SDS011;17573;55.922;37.540;2023-08-08T01:31:02;14.40;;;4.53;;
30862;SDS011;17573;55.922;37.540;2023-08-08T01:33:28;9.65;;;4.38;;
30862;SDS011;17573;55.922;37.540;2023-08-08T01:35:55;10.38;;;4.78;;
30862;SDS011;17573;55.922;37.540;2023-08-08T01:38:28;8.73;;;5.13;;
30862;SDS011;17573;55.922;37.540;2023-08-08T01:40:57;8.00;;;5.10;;
30862;SDS011;17573;55.922;37.540;2023-08-08T01:43:24;6.28;;;4.88;;
30862;SDS011;17573;55.922;37.540;2023-08-08T01:45:51;6.35;;;5.68;;
30862;SDS011;17573;55.922;37.540;2023-08-08T01:48:17;8.02;;;4.95;;
30862;SDS011;17573;55.922;37.540;2023-08-08T01:50:44;7.20;;;4.85;;
30862;SDS011;17573;55.922;37.540;2023-08-08T01:53:09;7.47;;;4.38;;
30862;SDS011;17573;55.922;37.540;2023-08-08T01:55:36;8.95;;;4.90;;
30862;SDS011;17573;55.922;37.540;2023-08-08T01:58:01;9.52;;;5.03;;
30862;SDS011;17573;55.922;37.540;2023-08-08T02:00:27;13.65;;;5.18;;
30862;SDS011;17573;55.922;37.540;2023-08-08T02:02:53;12.40;;;5.15;;
30862;SDS011;17573;55.922;37.540;2023-08-08T02:05:19;19.10;;;5.28;;
30862;SDS011;17573;55.922;37.540;2023-08-08T02:07:45;12.05;;;5.32;;
30862;SDS011;17573;55.922;37.540;2023-08-08T02:10:11;16.05;;;5.38;;
30862;SDS011;17573;55.922;37.540;2023-08-08T02:12:37;8.02;;;5.13;;
30862;SDS011;17573;55.922;37.540;2023-08-08T02:15:03;14.80;;;5.20;;
30862;SDS011;17573;55.922;37.540;2023-08-08T02:17:31;8.55;;;4.85;;
30862;SDS011;17573;55.922;37.540;2023-08-08T02:19:57;9.88;;;5.43;;
30862;SDS011;17573;55.922;37.540;2023-08-08T02:22:23;9.55;;;4.95;;
30862;SDS011;17573;55.922;37.540;2023-08-08T02:24:49;10.95;;;4.75;;
30862;SDS011;17573;55.922;37.540;2023-08-08T02:27:14;8.50;;;4.97;;
30862;SDS011;17573;55.922;37.540;2023-08-08T02:29:40;9.15;;;4.95;;
30862;SDS011;17573;55.922;37.540;2023-08-08T02:32:06;10.35;;;4.90;;
30862;SDS011;17573;55.922;37.540;2023-08-08T02:34:32;11.75;;;4.95;;
30862;SDS011;17573;55.922;37.540;2023-08-08T02:36:58;6.70;;;4.53;;
30862;SDS011;17573;55.922;37.540;2023-08-08T02:39:24;13.75;;;4.78;;
30862;SDS011;17573;55.922;37.540;2023-08-08T02:41:50;12.48;;;3.88;;
30862;SDS011;17573;55.922;37.540;2023-08-08T02:44:16;5.97;;;4.85;;
30862;SDS011;17573;55.922;37.540;2023-08-08T02:46:42;4.90;;;4.15;;
30862;SDS011;17573;55.922;37.540;2023-08-08T02:49:08;10.88;;;6.53;;
30862;SDS011;17573;55.922;37.540;2023-08-08T02:51:34;15.60;;;4.50;;
30862;SDS011;17573;55.922;37.540;2023-08-08T02:54:00;8.63;;;4.13;;
30862;SDS011;17573;55.922;37.540;2023-08-08T02:56:27;6.80;;;4.22;;
30862;SDS011;17573;55.922;37.540;2023-08-08T02:58:53;13.13;;;4.40;;
30862;SDS011;17573;55.922;37.540;2023-08-08T03:01:19;6.10;;;3.92;;
30862;SDS011;17573;55.922;37.540;2023-08-08T03:03:47;10.82;;;4.63;;
30862;SDS011;17573;55.922;37.540;2023-08-08T03:06:14;7.03;;;4.70;;
30862;SDS011;17573;55.922;37.540;2023-08-08T03:08:39;8.75;;;4.55;;
30862;SDS011;17573;55.922;37.540;2023-08-08T03:11:06;7.60;;;4.30;;
30862;SDS011;17573;55.922;37.540;2023-08-08T03:13:32;15.55;;;4.43;;
30862;SDS011;17573;55.922;37.540;2023-08-08T03:15:59;16.50;;;5.50;;
30862;SDS011;17573;55.922;37.540;2023-08-08T03:18:25;10.00;;;4.53;;
30862;SDS011;17573;55.922;37.540;2023-08-08T03:20:52;11.00;;;4.18;;
30862;SDS011;17573;55.922;37.540;2023-08-08T03:23:19;10.23;;;4.22;;
30862;SDS011;17573;55.922;37.540;2023-08-08T03:25:46;6.55;;;4.10;;
30862;SDS011;17573;55.922;37.540;2023-08-08T03:28:14;13.38;;;5.07;;
30862;SDS011;17573;55.922;37.540;2023-08-08T03:30:40;7.10;;;4.65;;
30862;SDS011;17573;55.922;37.540;2023-08-08T03:33:08;25.15;;;6.13;;
30862;SDS011;17573;55.922;37.540;2023-08-08T03:35:34;11.82;;;4.53;;
30862;SDS011;17573;55.922;37.540;2023-08-08T03:38:01;8.68;;;3.90;;
30862;SDS011;17573;55.922;37.540;2023-08-08T03:40:28;7.30;;;4.57;;
30862;SDS011;17573;55.922;37.540;2023-08-08T03:42:54;11.45;;;5.55;;
30862;SDS011;17573;55.922;37.540;2023-08-08T03:45:20;13.07;;;4.97;;
30862;SDS011;17573;55.922;37.540;2023-08-08T03:47:46;12.10;;;4.60;;
30862;SDS011;17573;55.922;37.540;2023-08-08T03:50:12;7.63;;;3.97;;
30862;SDS011;17573;55.922;37.540;2023-08-08T03:52:39;6.25;;;4.45;;
30862;SDS011;17573;55.922;37.540;2023-08-08T03:55:09;13.80;;;4.72;;
30862;SDS011;17573;55.922;37.540;2023-08-08T03:57:37;12.55;;;4.95;;
30862;SDS011;17573;55.922;37.540;2023-08-08T04:00:03;7.80;;;4.20;;
30862;SDS011;17573;55.922;37.540;2023-08-08T04:02:39;9.60;;;5.78;;
30862;SDS011;17573;55.922;37.540;2023-08-08T04:05:06;6.25;;;4.38;;
30862;SDS011;17573;55.922;37.540;2023-08-08T04:07:32;8.65;;;5.25;;
30862;SDS011;17573;55.922;37.540;2023-08-08T04:09:58;16.02;;;5.22;;
30862;SDS011;17573;55.922;37.540;2023-08-08T04:12:28;12.20;;;4.85;;
30862;SDS011;17573;55.922;37.540;2023-08-08T04:14:54;16.05;;;6.18;;
30862;SDS011;17573;55.922;37.540;2023-08-08T04:17:20;10.82;;;5.63;;
30862;SDS011;17573;55.922;37.540;2023-08-08T04:19:45;7.53;;;5.55;;
30862;SDS011;17573;55.922;37.540;2023-08-08T04:22:11;10.23;;;5.20;;
30862;SDS011;17573;55.922;37.540;2023-08-08T04:24:37;10.35;;;5.43;;
30862;SDS011;17573;55.922;37.540;2023-08-08T04:27:04;6.10;;;4.57;;
30862;SDS011;17573;55.922;37.540;2023-08-08T04:29:29;14.38;;;5.78;;
30862;SDS011;17573;55.922;37.540;2023-08-08T04:31:55;14.02;;;4.90;;
30862;SDS011;17573;55.922;37.540;2023-08-08T04:34:21;16.38;;;5.80;;
30862;SDS011;17573;55.922;37.540;2023-08-08T04:36:47;10.27;;;4.53;;
30862;SDS011;17573;55.922;37.540;2023-08-08T04:39:12;8.13;;;5.07;;
30862;SDS011;17573;55.922;37.540;2023-08-08T04:41:38;8.55;;;5.10;;
30862;SDS011;17573;55.922;37.540;2023-08-08T04:44:04;12.65;;;5.30;;
30862;SDS011;17573;55.922;37.540;2023-08-08T04:46:30;8.20;;;4.55;;
30862;SDS011;17573;55.922;37.540;2023-08-08T04:48:56;11.57;;;5.20;;
30862;SDS011;17573;55.922;37.540;2023-08-08T04:51:21;10.18;;;5.07;;
30862;SDS011;17573;55.922;37.540;2023-08-08T04:53:47;16.95;;;5.07;;
30862;SDS011;17573;55.922;37.540;2023-08-08T04:56:13;11.95;;;5.40;;
30862;SDS011;17573;55.922;37.540;2023-08-08T04:58:39;11.38;;;5.40;;
30862;SDS011;17573;55.922;37.540;2023-08-08T05:01:05;8.85;;;4.68;;
30862;SDS011;17573;55.922;37.540;2023-08-08T05:03:30;11.80;;;5.32;;
30862;SDS011;17573;55.922;37.540;2023-08-08T05:05:56;34.95;;;5.15;;
30862;SDS011;17573;55.922;37.540;2023-08-08T05:08:24;27.02;;;6.38;;
30862;SDS011;17573;55.922;37.540;2023-08-08T05:10:50;35.05;;;7.50;;
30862;SDS011;17573;55.922;37.540;2023-08-08T05:13:15;35.45;;;8.30;;
30862;SDS011;17573;55.922;37.540;2023-08-08T05:15:41;34.90;;;8.82;;
30862;SDS011;17573;55.922;37.540;2023-08-08T05:18:07;16.58;;;4.82;;
30862;SDS011;17573;55.922;37.540;2023-08-08T05:20:33;17.50;;;6.32;;
30862;SDS011;17573;55.922;37.540;2023-08-08T05:22:58;7.93;;;5.20;;
30862;SDS011;17573;55.922;37.540;2023-08-08T05:25:24;10.60;;;5.45;;
30862;SDS011;17573;55.922;37.540;2023-08-08T05:27:50;7.38;;;5.20;;
30862;SDS011;17573;55.922;37.540;2023-08-08T05:30:16;15.07;;;5.78;;
30862;SDS011;17573;55.922;37.540;2023-08-08T05:32:42;14.95;;;5.72;;
30862;SDS011;17573;55.922;37.540;2023-08-08T05:35:08;16.05;;;6.05;;
30862;SDS011;17573;55.922;37.540;2023-08-08T05:37:34;21.30;;;6.18;;
30862;SDS011;17573;55.922;37.540;2023-08-08T05:40:00;21.75;;;6.80;;
30862;SDS011;17573;55.922;37.540;2023-08-08T05:42:26;10.77;;;5.97;;
30862;SDS011;17573;55.922;37.540;2023-08-08T05:44:51;7.10;;;5.63;;
30862;SDS011;17573;55.922;37.540;2023-08-08T05:47:17;24.70;;;6.32;;
30862;SDS011;17573;55.922;37.540;2023-08-08T05:49:43;8.63;;;5.95;;
30862;SDS011;17573;55.922;37.540;2023-08-08T05:52:09;17.13;;;6.53;;
30862;SDS011;17573;55.922;37.540;2023-08-08T05:54:35;11.80;;;5.50;;
30862;SDS011;17573;55.922;37.540;2023-08-08T05:57:02;11.32;;;6.00;;
30862;SDS011;17573;55.922;37.540;2023-08-08T05:59:28;11.38;;;5.85;;
30862;SDS011;17573;55.922;37.540;2023-08-08T06:01:54;20.10;;;6.28;;
30862;SDS011;17573;55.922;37.540;2023-08-08T06:04:20;10.65;;;5.97;;
30862;SDS011;17573;55.922;37.540;2023-08-08T06:06:46;16.38;;;6.95;;
30862;SDS011;17573;55.922;37.540;2023-08-08T06:09:14;9.68;;;6.68;;
30862;SDS011;17573;55.922;37.540;2023-08-08T06:11:40;16.25;;;6.13;;
30862;SDS011;17573;55.922;37.540;2023-08-08T06:14:06;16.77;;;5.85;;
30862;SDS011;17573;55.922;37.540;2023-08-08T06:16:32;13.10;;;5.53;;
30862;SDS011;17573;55.922;37.540;2023-08-08T06:18:58;14.25;;;6.60;;
30862;SDS011;17573;55.922;37.540;2023-08-08T06:21:24;13.52;;;6.10;;
30862;SDS011;17573;55.922;37.540;2023-08-08T06:23:49;16.40;;;7.18;;
30862;SDS011;17573;55.922;37.540;2023-08-08T06:26:15;12.55;;;8.15;;
30862;SDS011;17573;55.922;37.540;2023-08-08T06:28:41;39.63;;;20.17;;
30862;SDS011;17573;55.922;37.540;2023-08-08T06:31:07;17.60;;;7.65;;
30862;SDS011;17573;55.922;37.540;2023-08-08T06:33:33;14.77;;;5.75;;
30862;SDS011;17573;55.922;37.540;2023-08-08T06:35:59;13.25;;;5.95;;
30862;SDS011;17573;55.922;37.540;2023-08-08T06:38:25;25.02;;;8.57;;
30862;SDS011;17573;55.922;37.540;2023-08-08T06:40:51;17.52;;;6.72;;
30862;SDS011;17573;55.922;37.540;2023-08-08T06:43:17;20.25;;;7.13;;
30862;SDS011;17573;55.922;37.540;2023-08-08T06:45:43;12.15;;;6.70;;
30862;SDS011;17573;55.922;37.540;2023-08-08T06:48:09;15.80;;;6.93;;
30862;SDS011;17573;55.922;37.540;2023-08-08T06:50:35;22.67;;;6.75;;
30862;SDS011;17573;55.922;37.540;2023-08-08T06:53:02;22.15;;;7.25;;
30862;SDS011;17573;55.922;37.540;2023-08-08T06:55:28;20.05;;;8.40;;
30862;SDS011;17573;55.922;37.540;2023-08-08T06:57:54;13.00;;;7.80;;
30862;SDS011;17573;55.922;37.540;2023-08-08T07:00:20;14.25;;;6.97;;
30862;SDS011;17573;55.922;37.540;2023-08-08T07:02:46;14.85;;;7.22;;
30862;SDS011;17573;55.922;37.540;2023-08-08T07:05:12;15.80;;;6.90;;
30862;SDS011;17573;55.922;37.540;2023-08-08T07:07:38;15.70;;;6.95;;
30862;SDS011;17573;55.922;37.540;2023-08-08T07:10:04;15.90;;;7.65;;
30862;SDS011;17573;55.922;37.540;2023-08-08T07:12:32;21.58;;;7.47;;
30862;SDS011;17573;55.922;37.540;2023-08-08T07:14:58;12.15;;;6.93;;
30862;SDS011;17573;55.922;37.540;2023-08-08T07:17:23;12.68;;;6.95;;
30862;SDS011;17573;55.922;37.540;2023-08-08T07:19:49;18.50;;;7.15;;
30862;SDS011;17573;55.922;37.540;2023-08-08T07:22:16;23.27;;;7.80;;
30862;SDS011;17573;55.922;37.540;2023-08-08T07:24:42;30.85;;;9.20;;
30862;SDS011;17573;55.922;37.540;2023-08-08T07:27:08;39.22;;;8.07;;
30862;SDS011;17573;55.922;37.540;2023-08-08T07:29:34;20.33;;;8.10;;
30862;SDS011;17573;55.922;37.540;2023-08-08T07:32:00;26.33;;;7.32;;
30862;SDS011;17573;55.922;37.540;2023-08-08T07:34:28;13.68;;;6.55;;
30862;SDS011;17573;55.922;37.540;2023-08-08T07:36:54;18.35;;;7.55;;
30862;SDS011;17573;55.922;37.540;2023-08-08T07:39:21;27.33;;;8.57;;
30862;SDS011;17573;55.922;37.540;2023-08-08T07:41:48;12.45;;;6.90;;
30862;SDS011;17573;55.922;37.540;2023-08-08T07:44:13;29.77;;;7.40;;
30862;SDS011;17573;55.922;37.540;2023-08-08T07:46:39;18.83;;;7.43;;
30862;SDS011;17573;55.922;37.540;2023-08-08T07:49:05;26.33;;;7.82;;
30862;SDS011;17573;55.922;37.540;2023-08-08T07:51:32;29.95;;;8.95;;
30862;SDS011;17573;55.922;37.540;2023-08-08T07:53:58;27.33;;;8.70;;
30862;SDS011;17573;55.922;37.540;2023-08-08T07:56:24;24.33;;;7.45;;
30862;SDS011;17573;55.922;37.540;2023-08-08T07:58:50;39.15;;;9.77;;
30862;SDS011;17573;55.922;37.540;2023-08-08T08:01:16;19.85;;;8.07;;
30862;SDS011;17573;55.922;37.540;2023-08-08T08:03:42;19.15;;;8.85;;
30862;SDS011;17573;55.922;37.540;2023-08-08T08:06:08;34.30;;;8.57;;
30862;SDS011;17573;55.922;37.540;2023-08-08T08:08:34;22.13;;;8.50;;
30862;SDS011;17573;55.922;37.540;2023-08-08T08:11:00;26.70;;;8.88;;
30862;SDS011;17573;55.922;37.540;2023-08-08T08:13:29;57.80;;;11.85;;
30862;SDS011;17573;55.922;37.540;2023-08-08T08:15:55;25.80;;;8.52;;
30862;SDS011;17573;55.922;37.540;2023-08-08T08:18:21;23.02;;;8.65;;
30862;SDS011;17573;55.922;37.540;2023-08-08T08:20:47;25.83;;;7.80;;
30862;SDS011;17573;55.922;37.540;2023-08-08T08:23:14;17.75;;;8.40;;
30862;SDS011;17573;55.922;37.540;2023-08-08T08:25:40;19.40;;;6.97;;
30862;SDS011;17573;55.922;37.540;2023-08-08T08:28:06;23.88;;;7.38;;
30862;SDS011;17573;55.922;37.540;2023-08-08T08:30:33;23.50;;;7.53;;
30862;SDS011;17573;55.922;37.540;2023-08-08T08:32:59;26.08;;;8.02;;
30862;SDS011;17573;55.922;37.540;2023-08-08T08:35:26;22.67;;;7.20;;
30862;SDS011;17573;55.922;37.540;2023-08-08T08:37:51;18.48;;;6.43;;
30862;SDS011;17573;55.922;37.540;2023-08-08T08:40:17;21.67;;;7.30;;
30862;SDS011;17573;55.922;37.540;2023-08-08T08:42:44;22.98;;;7.28;;
30862;SDS011;17573;55.922;37.540;2023-08-08T08:45:10;28.38;;;11.43;;
30862;SDS011;17573;55.922;37.540;2023-08-08T08:47:37;29.02;;;7.20;;
30862;SDS011;17573;55.922;37.540;2023-08-08T08:52:35;22.83;;;6.63;;
30862;SDS011;17573;55.922;37.540;2023-08-08T08:55:02;19.50;;;7.55;;
30862;SDS011;17573;55.922;37.540;2023-08-08T08:57:30;18.48;;;7.55;;
30862;SDS011;17573;55.922;37.540;2023-08-08T08:59:58;23.95;;;8.13;;
30862;SDS011;17573;55.922;37.540;2023-08-08T09:02:23;17.85;;;6.93;;
30862;SDS011;17573;55.922;37.540;2023-08-08T09:04:49;15.57;;;7.15;;
30862;SDS011;17573;55.922;37.540;2023-08-08T09:07:17;30.70;;;8.38;;
30862;SDS011;17573;55.922;37.540;2023-08-08T09:09:45;21.85;;;7.35;;
30862;SDS011;17573;55.922;37.540;2023-08-08T09:12:11;23.58;;;8.55;;
30862;SDS011;17573;55.922;37.540;2023-08-08T09:14:41;18.10;;;8.07;;
30862;SDS011;17573;55.922;37.540;2023-08-08T09:17:11;20.17;;;8.55;;
30862;SDS011;17573;55.922;37.540;2023-08-08T09:19:44;18.13;;;9.02;;
30862;SDS011;17573;55.922;37.540;2023-08-08T09:22:11;18.10;;;8.38;;
30862;SDS011;17573;55.922;37.540;2023-08-08T09:24:41;15.95;;;7.40;;
30862;SDS011;17573;55.922;37.540;2023-08-08T09:27:09;14.75;;;7.25;;
30862;SDS011;17573;55.922;37.540;2023-08-08T09:29:36;23.88;;;8.20;;
30862;SDS011;17573;55.922;37.540;2023-08-08T09:32:02;25.73;;;8.18;;
30862;SDS011;17573;55.922;37.540;2023-08-08T09:34:31;25.83;;;9.10;;
30862;SDS011;17573;55.922;37.540;2023-08-08T09:36:58;27.67;;;8.75;;
30862;SDS011;17573;55.922;37.540;2023-08-08T09:39:24;20.95;;;8.90;;
30862;SDS011;17573;55.922;37.540;2023-08-08T09:41:50;20.73;;;8.77;;
30862;SDS011;17573;55.922;37.540;2023-08-08T09:44:16;18.67;;;7.65;;
30862;SDS011;17573;55.922;37.540;2023-08-08T09:46:42;15.45;;;8.82;;
30862;SDS011;17573;55.922;37.540;2023-08-08T09:49:12;26.48;;;9.75;;
30862;SDS011;17573;55.922;37.540;2023-08-08T09:51:38;21.10;;;9.05;;
30862;SDS011;17573;55.922;37.540;2023-08-08T09:54:04;24.00;;;10.70;;
30862;SDS011;17573;55.922;37.540;2023-08-08T09:56:32;26.80;;;11.15;;
30862;SDS011;17573;55.922;37.540;2023-08-08T09:58:59;22.58;;;9.07;;
30862;SDS011;17573;55.922;37.540;2023-08-08T10:01:25;24.40;;;9.40;;
30862;SDS011;17573;55.922;37.540;2023-08-08T10:03:51;23.10;;;9.88;;
30862;SDS011;17573;55.922;37.540;2023-08-08T10:06:18;17.63;;;9.35;;
30862;SDS011;17573;55.922;37.540;2023-08-08T10:08:45;25.58;;;9.40;;
30862;SDS011;17573;55.922;37.540;2023-08-08T10:11:11;26.23;;;9.82;;
30862;SDS011;17573;55.922;37.540;2023-08-08T10:13:37;44.90;;;11.20;;
30862;SDS011;17573;55.922;37.540;2023-08-08T10:16:04;24.88;;;9.18;;
30862;SDS011;17573;55.922;37.540;2023-08-08T10:18:33;25.10;;;9.95;;
30862;SDS011;17573;55.922;37.540;2023-08-08T10:20:59;23.90;;;9.88;;
30862;SDS011;17573;55.922;37.540;2023-08-08T10:23:25;23.45;;;8.70;;
30862;SDS011;17573;55.922;37.540;2023-08-08T10:25:52;27.73;;;10.38;;
30862;SDS011;17573;55.922;37.540;2023-08-08T10:28:19;23.83;;;9.73;;
30862;SDS011;17573;55.922;37.540;2023-08-08T10:30:47;39.83;;;10.73;;
30862;SDS011;17573;55.922;37.540;2023-08-08T10:33:20;17.85;;;9.27;;
30862;SDS011;17573;55.922;37.540;2023-08-08T10:35:58;30.25;;;9.93;;
30862;SDS011;17573;55.922;37.540;2023-08-08T10:38:24;30.65;;;9.70;;
30862;SDS011;17573;55.922;37.540;2023-08-08T10:40:56;35.97;;;10.40;;
30862;SDS011;17573;55.922;37.540;2023-08-08T10:43:28;33.65;;;10.43;;
30862;SDS011;17573;55.922;37.540;2023-08-08T10:45:58;29.35;;;9.75;;
30862;SDS011;17573;55.922;37.540;2023-08-08T10:48:25;20.08;;;9.90;;
30862;SDS011;17573;55.922;37.540;2023-08-08T10:50:53;29.73;;;9.70;;
30862;SDS011;17573;55.922;37.540;2023-08-08T10:53:22;16.25;;;8.98;;
30862;SDS011;17573;55.922;37.540;2023-08-08T10:55:56;18.95;;;7.75;;
30862;SDS011;17573;55.922;37.540;2023-08-08T10:58:23;18.20;;;8.13;;
30862;SDS011;17573;55.922;37.540;2023-08-08T11:01:02;19.83;;;7.18;;
30862;SDS011;17573;55.922;37.540;2023-08-08T11:03:33;16.05;;;7.93;;
30862;SDS011;17573;55.922;37.540;2023-08-08T11:05:59;20.88;;;7.70;;
30862;SDS011;17573;55.922;37.540;2023-08-08T11:08:26;20.20;;;8.32;;
30862;SDS011;17573;55.922;37.540;2023-08-08T11:10:52;28.92;;;7.90;;
30862;SDS011;17573;55.922;37.540;2023-08-08T11:13:18;27.58;;;8.57;;
30862;SDS011;17573;55.922;37.540;2023-08-08T11:15:44;15.30;;;8.85;;
30862;SDS011;17573;55.922;37.540;2023-08-08T11:18:10;22.90;;;8.57;;
30862;SDS011;17573;55.922;37.540;2023-08-08T11:20:36;28.90;;;9.43;;
30862;SDS011;17573;55.922;37.540;2023-08-08T11:23:02;16.92;;;8.85;;
30862;SDS011;17573;55.922;37.540;2023-08-08T11:25:36;24.00;;;9.00;;
30862;SDS011;17573;55.922;37.540;2023-08-08T11:28:02;18.95;;;9.18;;
30862;SDS011;17573;55.922;37.540;2023-08-08T11:30:30;20.85;;;8.93;;
30862;SDS011;17573;55.922;37.540;2023-08-08T11:33:00;24.38;;;8.90;;
30862;SDS011;17573;55.922;37.540;2023-08-08T11:35:26;16.40;;;8.60;;
30862;SDS011;17573;55.922;37.540;2023-08-08T11:37:53;26.00;;;9.38;;
30862;SDS011;17573;55.922;37.540;2023-08-08T11:40:20;30.75;;;10.10;;
30862;SDS011;17573;55.922;37.540;2023-08-08T11:42:47;17.27;;;8.40;;
30862;SDS011;17573;55.922;37.540;2023-08-08T11:45:16;18.30;;;8.30;;
30862;SDS011;17573;55.922;37.540;2023-08-08T11:47:41;23.73;;;8.43;;
30862;SDS011;17573;55.922;37.540;2023-08-08T11:50:08;30.98;;;9.85;;
30862;SDS011;17573;55.922;37.540;2023-08-08T11:52:36;29.00;;;9.75;;
30862;SDS011;17573;55.922;37.540;2023-08-08T11:55:06;22.60;;;10.02;;
30862;SDS011;17573;55.922;37.540;2023-08-08T11:57:36;34.20;;;9.93;;
30862;SDS011;17573;55.922;37.540;2023-08-08T12:00:07;20.80;;;8.73;;
30862;SDS011;17573;55.922;37.540;2023-08-08T12:02:41;19.88;;;9.00;;
30862;SDS011;17573;55.922;37.540;2023-08-08T12:05:08;20.30;;;9.10;;
30862;SDS011;17573;55.922;37.540;2023-08-08T12:07:35;25.95;;;10.93;;
30862;SDS011;17573;55.922;37.540;2023-08-08T12:10:03;15.75;;;9.70;;
30862;SDS011;17573;55.922;37.540;2023-08-08T12:12:31;21.58;;;9.40;;
30862;SDS011;17573;55.922;37.540;2023-08-08T12:15:03;20.52;;;9.00;;
30862;SDS011;17573;55.922;37.540;2023-08-08T12:17:31;20.85;;;10.15;;
30862;SDS011;17573;55.922;37.540;2023-08-08T12:20:02;34.63;;;9.43;;
30862;SDS011;17573;55.922;37.540;2023-08-08T12:22:31;26.95;;;11.30;;
30862;SDS011;17573;55.922;37.540;2023-08-08T12:24:57;21.77;;;9.93;;
30862;SDS011;17573;55.922;37.540;2023-08-08T12:27:23;21.65;;;10.80;;
30862;SDS011;17573;55.922;37.540;2023-08-08T12:29:49;25.67;;;10.95;;
30862;SDS011;17573;55.922;37.540;2023-08-08T12:32:15;26.33;;;11.23;;
30862;SDS011;17573;55.922;37.540;2023-08-08T12:34:40;19.08;;;10.65;;
30862;SDS011;17573;55.922;37.540;2023-08-08T12:37:06;25.60;;;11.30;;
30862;SDS011;17573;55.922;37.540;2023-08-08T12:39:33;25.25;;;12.25;;
30862;SDS011;17573;55.922;37.540;2023-08-08T12:41:58;24.83;;;10.32;;
30862;SDS011;17573;55.922;37.540;2023-08-08T12:44:24;43.15;;;10.77;;
30862;SDS011;17573;55.922;37.540;2023-08-08T12:46:50;24.85;;;10.02;;
30862;SDS011;17573;55.922;37.540;2023-08-08T12:49:16;27.92;;;10.15;;
30862;SDS011;17573;55.922;37.540;2023-08-08T12:51:42;31.55;;;12.45;;
30862;SDS011;17573;55.922;37.540;2023-08-08T12:54:08;17.98;;;11.38;;
30862;SDS011;17573;55.922;37.540;2023-08-08T12:56:34;22.10;;;11.57;;
30862;SDS011;17573;55.922;37.540;2023-08-08T12:59:00;38.80;;;10.82;;
30862;SDS011;17573;55.922;37.540;2023-08-08T13:01:28;32.47;;;10.93;;
30862;SDS011;17573;55.922;37.540;2023-08-08T13:03:54;26.75;;;11.55;;
30862;SDS011;17573;55.922;37.540;2023-08-08T13:06:20;32.75;;;10.57;;
30862;SDS011;17573;55.922;37.540;2023-08-08T13:08:46;26.95;;;9.38;;
30862;SDS011;17573;55.922;37.540;2023-08-08T13:11:12;35.33;;;10.35;;
30862;SDS011;17573;55.922;37.540;2023-08-08T13:13:38;34.42;;;10.10;;
30862;SDS011;17573;55.922;37.540;2023-08-08T13:16:03;32.65;;;10.02;;
30862;SDS011;17573;55.922;37.540;2023-08-08T13:18:29;21.02;;;10.18;;
30862;SDS011;17573;55.922;37.540;2023-08-08T13:20:55;21.20;;;10.15;;
30862;SDS011;17573;55.922;37.540;2023-08-08T13:23:21;20.08;;;9.90;;
30862;SDS011;17573;55.922;37.540;2023-08-08T13:25:47;21.48;;;8.98;;
30862;SDS011;17573;55.922;37.540;2023-08-08T13:28:14;21.88;;;10.02;;
30862;SDS011;17573;55.922;37.540;2023-08-08T13:30:40;36.08;;;10.88;;
30862;SDS011;17573;55.922;37.540;2023-08-08T13:33:09;44.85;;;10.38;;
30862;SDS011;17573;55.922;37.540;2023-08-08T13:35:34;27.60;;;10.52;;
30862;SDS011;17573;55.922;37.540;2023-08-08T13:38:01;38.10;;;10.85;;
30862;SDS011;17573;55.922;37.540;2023-08-08T13:40:27;26.35;;;10.63;;
30862;SDS011;17573;55.922;37.540;2023-08-08T13:42:52;29.02;;;12.90;;
30862;SDS011;17573;55.922;37.540;2023-08-08T13:45:19;31.25;;;12.43;;
30862;SDS011;17573;55.922;37.540;2023-08-08T13:47:46;28.83;;;12.52;;
30862;SDS011;17573;55.922;37.540;2023-08-08T13:50:13;23.27;;;11.73;;
30862;SDS011;17573;55.922;37.540;2023-08-08T13:52:39;43.35;;;12.68;;
30862;SDS011;17573;55.922;37.540;2023-08-08T13:55:06;25.65;;;11.10;;
30862;SDS011;17573;55.922;37.540;2023-08-08T13:57:33;30.08;;;10.95;;
30862;SDS011;17573;55.922;37.540;2023-08-08T13:59:58;30.90;;;11.85;;
30862;SDS011;17573;55.922;37.540;2023-08-08T14:02:24;25.98;;;12.20;;
30862;SDS011;17573;55.922;37.540;2023-08-08T14:04:50;37.97;;;12.27;;
30862;SDS011;17573;55.922;37.540;2023-08-08T14:07:18;29.77;;;13.32;;
30862;SDS011;17573;55.922;37.540;2023-08-08T14:09:44;34.28;;;12.88;;
30862;SDS011;17573;55.922;37.540;2023-08-08T14:12:09;35.08;;;15.88;;
30862;SDS011;17573;55.922;37.540;2023-08-08T14:14:35;25.95;;;12.18;;
30862;SDS011;17573;55.922;37.540;2023-08-08T14:17:01;35.83;;;14.75;;
30862;SDS011;17573;55.922;37.540;2023-08-08T14:19:27;33.83;;;14.98;;